AirNav   Duncan Aviation - Near you to keep you flying
 
 762 users online  

27ND Overland-Lohse Field Airport
Alamo, North Dakota, USA

GOING TO ALAMO?


FAA INFORMATION EFFECTIVE 01 DECEMBER 2022

Location

FAA Identifier: 27ND
Lat/Long: 48-34-43.0700N 103-27-57.5200W
48-34.717833N 103-27.958667W
48.5786306,-103.4659778
(estimated)
Elevation: 2124 ft. / 647 m (estimated)
Time zone: UTC -6 (UTC -5 during Daylight Saving Time)
Zip code: 58830

Airport Operations

Airport use: Private use. Permission required prior to landing
Activation date: 04/2011
Control tower: no
ARTCC: SALT LAKE CITY CENTER
FSS: GRAND FORKS FLIGHT SERVICE STATION
Attendance: UNATNDD
Wind indicator: yes
Segmented circle: no

Nearby radio navigation aids

VOR radial/distance  VOR name  Freq  Var
ISNr022/22.6WILLISTON VOR/DME116.3008E

Airport Services

Runway Information

Runway 8/26

Dimensions: 2275 x 150 ft. / 693 x 46 m
Surface: turf
RUNWAY 8  RUNWAY 26
Traffic pattern: rightleft
Displaced threshold: 445 ft.no

Airport Ownership and Management from official FAA records

Ownership: Privately-owned
Owner: TANNER A. OVERLAND
P.O. BOX 59
WILLSTON, ND 58802-0059
Phone 701-770-4548
Manager: TANNER A. OVERLAND
P.O. BOX 59
WILLSTON, ND 58802-0059
Phone 701-770-4548

Additional Remarks

FOR CD CTC SALT LAKE ARTCC AT 801-320-2568.

Instrument Procedures

There are no published instrument procedures at 27ND.

Some nearby airports with instrument procedures:

D50 - Crosby Municipal Airport (22 nm N)
KXWA - Williston Basin International Airport (22 nm SW)
D60 - Tioga Municipal Airport (26 nm SE)
KPWD - Sher-Wood Airport (44 nm W)
08D - Stanley Municipal Airport (45 nm E)
 
Loc | Ops | Rwys | IFR | FBO | Links
Com | Nav | Svcs | Stats | Notes

Bismarck Aero Center
AirBoss

 
Aerial photo
No photo
 
Sectional chart

 
Airport distance calculator
Flying to Overland-Lohse Field Airport? Find the distance to fly.

From to 27ND

Sunrise and sunset
Times for 03-Dec-2022
 Local
(UTC-6)
 Zulu
(UTC)
Morning civil twilight07:5213:52
Sunrise08:2814:28
Sunset16:5922:59
Evening civil twilight17:3523:35

Current date and time
Zulu (UTC)  04-Dec-2022 03:31:50
Local (UTC-6)  03-Dec-2022 21:31:50
 
METAR
KD50 
22nm N 
040315Z AUTO 22004KT 10SM CLR M16/M20 A3004 RMK AO2
KXWA 
22nm SW 
040251Z AUTO 26013KT 10SM CLR M13/M17 A3003 RMK AO2 SLP239 T11331167 53001 $
KD60 
26nm SE 
040315Z AUTO 27011KT 10SM CLR M13/M15 A3003 RMK AO2
CYEN 
43nm NE 
040300Z AUTO 22008KT 9SM BKN160 OVC180 M19/M22 A3001 RMK SLP222
KPWD 
44nm W 
040315Z AUTO 29011KT 10SM CLR M15/M18 A3003 RMK AO2
TAF
KXWA 
22nm SW 
032046Z 0321/0418 23011G19KT P6SM SKC FM040000 25010KT P6SM FEW200 FM041000 25013G20KT P6SM SKC WS015/29040KT FM041600 25018G28KT P6SM SKC
NOTAMs
Click for the latest NOTAMs
NOTAMs are issued by the DoD/FAA and will open in a separate window not controlled by AirNav.

 

 
 

Would you like to see your business listed on this page?

 If your business provides an interesting product or service to pilots, flight crews, aircraft, or users of the Overland-Lohse Field Airport, you should consider listing it here.  To start the listing process, click on the button below
 
Add a business
 

Other Pages about Overland-Lohse Field Airport

Update a link
 
Copyright © AirNav, LLC. All rights reserved. Privacy Policy  Contact